Time;durP1;ratioP1;P1;durP2;ratioP2;P2;SDS_P1;SDS_P2;PMS_P1;PMS_P2;Temp;Humidity;BMP_temperature;BMP_pressure;BME280_temperature;BME280_humidity;BME280_pressure;Samples;Min_cycle;Max_cycle;Signal;HPM_P1;HPM_P2
2023/07/28 00:02:01;;;;;;;8.48;6.40;;;;;;;;;;4974852;28;20046;-69
2023/07/28 00:04:26;;;;;;;9.95;7.18;;;;;;;;;;4974559;28;20019;-71
2023/07/28 00:06:52;;;;;;;11.13;7.82;;;;;;;;;;4974659;28;20133;-69
2023/07/28 00:09:17;;;;;;;11.68;6.90;;;;;;;;;;4974563;28;20054;-68
2023/07/28 00:11:43;;;;;;;10.07;7.35;;;;;;;;;;4974579;28;20487;-70
2023/07/28 00:14:08;;;;;;;9.45;7.05;;;;;;;;;;4974527;28;20027;-65
2023/07/28 00:16:33;;;;;;;11.30;7.30;;;;;;;;;;4974483;28;20023;-65
2023/07/28 00:18:59;;;;;;;11.07;7.53;;;;;;;;;;4974288;28;20117;-68
2023/07/28 00:21:26;;;;;;;9.23;6.90;;;;;;;;;;4974550;28;20113;-66
2023/07/28 00:23:51;;;;;;;13.82;7.82;;;;;;;;;;4974263;28;20034;-69
2023/07/28 00:26:17;;;;;;;10.88;6.97;;;;;;;;;;4974459;28;20027;-69
2023/07/28 00:28:42;;;;;;;13.48;7.70;;;;;;;;;;4974516;28;20045;-67
2023/07/28 00:31:07;;;;;;;11.55;7.95;;;;;;;;;;4974307;28;20325;-68
2023/07/28 00:33:33;;;;;;;13.13;7.72;;;;;;;;;;4974249;28;20395;-69
2023/07/28 00:35:58;;;;;;;12.40;8.15;;;;;;;;;;4974346;28;20037;-69
2023/07/28 00:38:24;;;;;;;13.45;7.95;;;;;;;;;;4973992;28;20042;-67
2023/07/28 00:40:49;;;;;;;15.18;8.93;;;;;;;;;;4974140;28;20023;-69
2023/07/28 00:43:14;;;;;;;13.80;8.65;;;;;;;;;;4973647;28;20062;-70
2023/07/28 00:45:40;;;;;;;12.98;8.30;;;;;;;;;;4973976;28;20119;-65
2023/07/28 00:48:12;;;;;;;10.07;7.90;;;;;;;;;;4974090;28;20481;-64
2023/07/28 00:50:38;;;;;;;13.07;7.93;;;;;;;;;;4974260;28;20082;-68
2023/07/28 00:53:04;;;;;;;13.65;7.80;;;;;;;;;;4973684;28;20428;-68
2023/07/28 00:55:29;;;;;;;14.07;8.93;;;;;;;;;;4974047;28;20031;-65
2023/07/28 00:57:55;;;;;;;11.43;8.07;;;;;;;;;;4974079;28;20082;-64
2023/07/28 01:00:20;;;;;;;13.40;9.18;;;;;;;;;;4973988;28;20030;-65
2023/07/28 01:02:46;;;;;;;13.90;8.55;;;;;;;;;;4973941;28;20109;-66
2023/07/28 01:05:11;;;;;;;14.65;8.80;;;;;;;;;;4973983;28;20495;-66
2023/07/28 01:07:47;;;;;;;13.52;8.85;;;;;;;;;;4973801;28;20038;-66
2023/07/28 01:10:26;;;;;;;13.30;8.88;;;;;;;;;;4973924;28;20516;-68
2023/07/28 01:12:51;;;;;;;14.93;8.93;;;;;;;;;;4973884;28;20110;-66
2023/07/28 01:15:17;;;;;;;14.63;9.93;;;;;;;;;;4973948;28;20117;-66
2023/07/28 01:17:42;;;;;;;13.13;9.40;;;;;;;;;;4973627;28;20042;-68
2023/07/28 01:20:08;;;;;;;14.73;8.77;;;;;;;;;;4973834;28;20031;-65
2023/07/28 01:22:34;;;;;;;18.30;9.55;;;;;;;;;;4973699;28;20677;-66
2023/07/28 01:25:17;;;;;;;13.63;9.65;;;;;;;;;;4973711;28;20063;-67
2023/07/28 01:27:43;;;;;;;15.70;9.63;;;;;;;;;;4973968;28;20063;-66
2023/07/28 01:30:12;;;;;;;18.52;10.10;;;;;;;;;;4973815;28;20038;-65
2023/07/28 01:32:38;;;;;;;14.75;10.15;;;;;;;;;;4973726;28;20496;-66
2023/07/28 01:35:04;;;;;;;13.90;10.23;;;;;;;;;;4973382;28;20038;-66
2023/07/28 01:37:29;;;;;;;16.23;10.90;;;;;;;;;;4973774;28;20031;-65
2023/07/28 01:39:55;;;;;;;14.93;9.48;;;;;;;;;;4973699;28;20035;-67
2023/07/28 01:42:21;;;;;;;14.50;10.07;;;;;;;;;;4973402;28;20477;-67
2023/07/28 01:44:46;;;;;;;13.38;9.20;;;;;;;;;;4973657;28;20034;-66
2023/07/28 01:47:12;;;;;;;16.08;10.18;;;;;;;;;;4973306;28;20050;-65
2023/07/28 01:49:37;;;;;;;12.55;9.55;;;;;;;;;;4973411;28;20038;-66
2023/07/28 01:52:03;;;;;;;14.35;10.35;;;;;;;;;;4973602;28;20019;-66
2023/07/28 01:54:28;;;;;;;14.23;10.13;;;;;;;;;;4974405;28;20114;-68
2023/07/28 01:56:53;;;;;;;13.40;10.32;;;;;;;;;;4977056;28;20030;-67
2023/07/28 01:59:20;;;;;;;12.73;10.10;;;;;;;;;;4975727;28;20472;-65
2023/07/28 02:01:45;;;;;;;13.70;9.43;;;;;;;;;;4976985;28;20034;-66
2023/07/28 02:04:11;;;;;;;13.25;9.48;;;;;;;;;;4976619;28;20093;-67
2023/07/28 02:06:36;;;;;;;12.68;9.70;;;;;;;;;;4976978;28;20029;-66
2023/07/28 02:09:02;;;;;;;14.13;9.57;;;;;;;;;;4975708;28;20031;-67
2023/07/28 02:11:27;;;;;;;13.57;9.38;;;;;;;;;;4976920;28;20035;-65
2023/07/28 02:13:53;;;;;;;11.90;8.80;;;;;;;;;;4976762;28;20110;-66
2023/07/28 02:16:18;;;;;;;12.23;8.32;;;;;;;;;;4976725;28;20026;-71
2023/07/28 02:18:44;;;;;;;14.10;9.77;;;;;;;;;;4976362;28;20536;-69
2023/07/28 02:21:09;;;;;;;12.55;9.68;;;;;;;;;;4976590;28;20085;-67
2023/07/28 02:23:34;;;;;;;11.57;8.48;;;;;;;;;;4976719;28;20029;-66
2023/07/28 02:26:00;;;;;;;10.65;7.65;;;;;;;;;;4976758;28;20031;-68
2023/07/28 02:28:25;;;;;;;9.75;7.72;;;;;;;;;;4976583;28;20027;-67
2023/07/28 02:30:51;;;;;;;10.70;7.30;;;;;;;;;;4976608;28;20031;-66
2023/07/28 02:33:16;;;;;;;12.68;8.10;;;;;;;;;;4976318;28;20030;-65
2023/07/28 02:35:42;;;;;;;9.90;6.60;;;;;;;;;;4976322;28;20027;-67
2023/07/28 02:38:08;;;;;;;8.80;7.38;;;;;;;;;;4976401;28;20025;-66
2023/07/28 02:40:33;;;;;;;9.40;7.03;;;;;;;;;;4976262;28;20034;-66
2023/07/28 02:42:59;;;;;;;9.77;6.40;;;;;;;;;;4976256;28;20054;-66
2023/07/28 02:45:24;;;;;;;7.05;5.72;;;;;;;;;;4976272;28;20041;-65
2023/07/28 02:47:50;;;;;;;7.32;5.88;;;;;;;;;;4975921;28;20030;-65
2023/07/28 02:50:16;;;;;;;6.10;5.05;;;;;;;;;;4976280;28;20472;-66
2023/07/28 02:52:42;;;;;;;8.57;5.22;;;;;;;;;;4976242;28;20444;-66
2023/07/28 02:55:08;;;;;;;7.00;5.65;;;;;;;;;;4976106;28;20411;-66
2023/07/28 02:57:33;;;;;;;6.82;5.20;;;;;;;;;;4974699;28;20039;-66
2023/07/28 02:59:58;;;;;;;7.93;5.57;;;;;;;;;;4976195;28;20022;-65
2023/07/28 03:02:24;;;;;;;6.95;5.03;;;;;;;;;;4975685;28;20050;-65
2023/07/28 03:04:50;;;;;;;7.53;5.60;;;;;;;;;;4975627;28;20038;-65
2023/07/28 03:07:15;;;;;;;6.35;5.43;;;;;;;;;;4975782;28;20023;-65
2023/07/28 03:09:41;;;;;;;8.68;6.43;;;;;;;;;;4975755;28;20022;-66
2023/07/28 03:12:07;;;;;;;7.00;4.97;;;;;;;;;;4975808;28;20046;-65
2023/07/28 03:14:33;;;;;;;8.13;5.32;;;;;;;;;;4975917;28;20389;-65
2023/07/28 03:16:58;;;;;;;7.40;5.07;;;;;;;;;;4975161;28;20031;-65
2023/07/28 03:19:24;;;;;;;5.68;5.07;;;;;;;;;;4975526;28;20365;-66
2023/07/28 03:21:49;;;;;;;5.10;4.60;;;;;;;;;;4975377;28;20034;-66
2023/07/28 03:24:15;;;;;;;6.50;5.30;;;;;;;;;;4975378;28;20027;-66
2023/07/28 03:26:40;;;;;;;7.38;5.70;;;;;;;;;;4975441;28;20056;-66
2023/07/28 03:29:05;;;;;;;8.00;5.05;;;;;;;;;;4975231;28;20414;-65
2023/07/28 03:31:31;;;;;;;5.15;4.20;;;;;;;;;;4975222;28;20023;-69
2023/07/28 03:33:56;;;;;;;6.38;4.40;;;;;;;;;;4975305;28;20058;-66
2023/07/28 03:36:22;;;;;;;6.30;3.72;;;;;;;;;;4975364;28;20465;-65
2023/07/28 03:38:47;;;;;;;7.38;3.90;;;;;;;;;;4975116;28;20377;-67
2023/07/28 03:41:13;;;;;;;5.28;4.28;;;;;;;;;;4974937;28;20114;-65
2023/07/28 03:43:41;;;;;;;4.68;4.13;;;;;;;;;;4975143;28;20066;-66
2023/07/28 03:46:06;;;;;;;5.50;4.32;;;;;;;;;;4974568;28;20098;-65
2023/07/28 03:48:32;;;;;;;4.60;3.95;;;;;;;;;;4975090;28;20394;-65
2023/07/28 03:50:57;;;;;;;6.35;4.32;;;;;;;;;;4975177;28;20149;-65
2023/07/28 03:53:23;;;;;;;5.00;3.88;;;;;;;;;;4974925;28;20023;-66
2023/07/28 03:55:48;;;;;;;5.15;4.28;;;;;;;;;;4975004;28;20018;-64
2023/07/28 03:58:14;;;;;;;4.15;3.38;;;;;;;;;;4974977;28;20050;-65
2023/07/28 04:00:39;;;;;;;4.40;3.88;;;;;;;;;;4974516;28;20026;-67
2023/07/28 04:03:04;;;;;;;6.68;3.95;;;;;;;;;;4974715;28;20035;-65
2023/07/28 04:05:30;;;;;;;5.75;3.83;;;;;;;;;;4974751;28;20053;-65
2023/07/28 04:07:55;;;;;;;4.85;4.10;;;;;;;;;;4974815;28;20437;-65
2023/07/28 04:10:21;;;;;;;6.13;4.15;;;;;;;;;;4974661;28;20548;-65
2023/07/28 04:12:46;;;;;;;4.60;4.00;;;;;;;;;;4974482;28;20026;-65
2023/07/28 04:15:11;;;;;;;4.95;3.63;;;;;;;;;;4974523;28;20431;-65
2023/07/28 04:17:37;;;;;;;6.35;3.65;;;;;;;;;;4973798;28;20472;-65
2023/07/28 04:20:02;;;;;;;5.53;3.65;;;;;;;;;;4974472;28;20070;-65
2023/07/28 04:22:28;;;;;;;4.13;3.70;;;;;;;;;;4974539;28;20089;-66
2023/07/28 04:24:54;;;;;;;4.07;3.67;;;;;;;;;;4974501;28;20097;-67
2023/07/28 04:27:19;;;;;;;5.18;3.80;;;;;;;;;;4974367;28;20389;-65
2023/07/28 04:29:45;;;;;;;4.10;3.70;;;;;;;;;;4974176;28;20019;-67
2023/07/28 04:32:10;;;;;;;4.65;3.55;;;;;;;;;;4974427;28;20477;-65
2023/07/28 04:34:36;;;;;;;3.60;3.30;;;;;;;;;;4974273;28;20037;-66
2023/07/28 04:37:01;;;;;;;4.97;3.60;;;;;;;;;;4974419;28;20031;-66
2023/07/28 04:39:27;;;;;;;4.93;4.30;;;;;;;;;;4974219;28;20035;-65
2023/07/28 04:41:52;;;;;;;4.53;4.10;;;;;;;;;;4974180;28;20026;-67
2023/07/28 04:44:19;;;;;;;4.47;3.47;;;;;;;;;;4973724;28;20165;-66
2023/07/28 04:46:47;;;;;;;5.80;3.50;;;;;;;;;;4973858;28;20117;-66
2023/07/28 04:49:13;;;;;;;4.88;3.90;;;;;;;;;;4974083;28;20031;-65
2023/07/28 04:51:38;;;;;;;4.78;3.85;;;;;;;;;;4974056;28;20391;-65
2023/07/28 04:54:04;;;;;;;4.43;3.60;;;;;;;;;;4974066;28;20029;-66
2023/07/28 04:56:29;;;;;;;5.95;4.10;;;;;;;;;;4974102;28;20027;-67
2023/07/28 04:58:54;;;;;;;3.97;3.58;;;;;;;;;;4973816;28;20033;-65
2023/07/28 05:01:20;;;;;;;4.03;3.63;;;;;;;;;;4974019;28;20034;-65
2023/07/28 05:03:45;;;;;;;4.40;3.88;;;;;;;;;;4974142;28;20033;-66
2023/07/28 05:06:11;;;;;;;6.03;4.07;;;;;;;;;;4973962;28;20031;-66
2023/07/28 05:08:36;;;;;;;4.93;4.18;;;;;;;;;;4973854;28;20031;-66
2023/07/28 05:11:01;;;;;;;4.78;4.30;;;;;;;;;;4973996;28;20053;-63
2023/07/28 05:13:27;;;;;;;8.00;4.75;;;;;;;;;;4973694;28;20326;-67
2023/07/28 05:15:52;;;;;;;7.55;5.05;;;;;;;;;;4973935;28;20073;-66
2023/07/28 05:18:18;;;;;;;5.32;4.60;;;;;;;;;;4973730;28;20105;-67
2023/07/28 05:20:43;;;;;;;4.60;4.07;;;;;;;;;;4973820;28;20030;-67
2023/07/28 05:23:08;;;;;;;5.32;4.75;;;;;;;;;;4972436;28;20151;-66
2023/07/28 05:25:34;;;;;;;7.13;5.30;;;;;;;;;;4973822;28;20033;-66
2023/07/28 05:27:59;;;;;;;7.22;4.80;;;;;;;;;;4973868;28;20023;-66
2023/07/28 05:30:25;;;;;;;5.57;4.60;;;;;;;;;;4977595;28;20026;-68
2023/07/28 05:32:50;;;;;;;7.30;4.82;;;;;;;;;;4977522;28;20369;-65
2023/07/28 05:35:16;;;;;;;7.43;5.30;;;;;;;;;;4976284;28;20110;-66
2023/07/28 05:37:41;;;;;;;6.78;4.95;;;;;;;;;;4977407;28;20137;-66
2023/07/28 05:40:08;;;;;;;6.35;5.28;;;;;;;;;;4977388;28;20037;-67
2023/07/28 05:42:33;;;;;;;5.90;5.28;;;;;;;;;;4977007;28;20023;-67
2023/07/28 05:44:59;;;;;;;4.97;4.47;;;;;;;;;;4977401;28;20033;-65
2023/07/28 05:47:24;;;;;;;5.72;4.72;;;;;;;;;;4976986;28;20109;-66
2023/07/28 05:49:53;;;;;;;5.47;4.50;;;;;;;;;;4977544;28;20038;-65
2023/07/28 05:52:19;;;;;;;6.07;4.57;;;;;;;;;;4976988;28;20027;-65
2023/07/28 05:54:44;;;;;;;5.35;4.85;;;;;;;;;;4977372;28;20022;-65
2023/07/28 05:57:10;;;;;;;7.15;6.00;;;;;;;;;;4976982;28;20030;-66
2023/07/28 05:59:36;;;;;;;6.28;5.68;;;;;;;;;;4977159;28;20388;-67
2023/07/28 06:02:01;;;;;;;6.72;5.95;;;;;;;;;;4977035;28;20521;-68
2023/07/28 06:04:27;;;;;;;6.25;5.63;;;;;;;;;;4976914;28;20106;-66
2023/07/28 06:06:52;;;;;;;6.65;5.82;;;;;;;;;;4976991;28;20023;-65
2023/07/28 06:09:18;;;;;;;6.38;5.70;;;;;;;;;;4976987;28;20472;-67
2023/07/28 06:11:43;;;;;;;6.38;5.70;;;;;;;;;;4976563;28;20035;-66
2023/07/28 06:14:09;;;;;;;6.50;5.88;;;;;;;;;;4976876;28;20034;-66
2023/07/28 06:16:34;;;;;;;6.22;5.63;;;;;;;;;;4976876;28;20086;-67
2023/07/28 06:18:59;;;;;;;6.53;5.30;;;;;;;;;;4976563;28;20035;-66
2023/07/28 06:21:25;;;;;;;7.40;5.50;;;;;;;;;;4976754;28;20026;-66
2023/07/28 06:23:50;;;;;;;6.45;5.15;;;;;;;;;;4976614;28;20062;-65
2023/07/28 06:26:16;;;;;;;9.20;5.85;;;;;;;;;;4976427;28;20027;-67
2023/07/28 06:28:41;;;;;;;7.82;5.60;;;;;;;;;;4976516;28;20253;-65
2023/07/28 06:31:08;;;;;;;7.47;6.05;;;;;;;;;;4972264;28;20029;-66
2023/07/28 06:33:33;;;;;;;8.90;5.32;;;;;;;;;;4965799;28;20070;-65
2023/07/28 06:35:59;;;;;;;9.07;6.10;;;;;;;;;;4974122;28;20126;-67
2023/07/28 06:38:24;;;;;;;7.00;6.30;;;;;;;;;;4975811;28;20109;-68
2023/07/28 06:40:50;;;;;;;12.90;6.53;;;;;;;;;;4978874;28;20022;-66
2023/07/28 06:43:15;;;;;;;7.68;6.10;;;;;;;;;;4976362;28;20622;-66
2023/07/28 06:45:41;;;;;;;5.35;4.72;;;;;;;;;;4974632;28;20041;-67
2023/07/28 06:48:06;;;;;;;6.28;4.80;;;;;;;;;;4975564;28;20550;-68
2023/07/28 06:50:32;;;;;;;5.78;4.82;;;;;;;;;;4975558;28;20027;-66
2023/07/28 06:52:58;;;;;;;8.55;4.82;;;;;;;;;;4975623;28;20023;-65
2023/07/28 06:55:23;;;;;;;4.50;4.10;;;;;;;;;;4975536;28;20022;-65
2023/07/28 06:57:49;;;;;;;5.45;4.10;;;;;;;;;;4975743;28;20413;-65
2023/07/28 07:00:15;;;;;;;4.15;3.67;;;;;;;;;;4975531;28;20388;-66
2023/07/28 07:02:40;;;;;;;4.78;3.67;;;;;;;;;;4975696;28;20034;-66
2023/07/28 07:05:06;;;;;;;4.70;3.47;;;;;;;;;;4975677;28;20031;-67
2023/07/28 07:07:32;;;;;;;4.35;3.38;;;;;;;;;;4975471;28;20073;-66
2023/07/28 07:09:58;;;;;;;3.63;3.33;;;;;;;;;;4975296;28;20500;-67
2023/07/28 07:12:23;;;;;;;6.63;2.90;;;;;;;;;;4975571;28;20043;-67
2023/07/28 07:14:49;;;;;;;3.63;2.75;;;;;;;;;;4974088;28;20035;-66
2023/07/28 07:17:14;;;;;;;3.15;2.78;;;;;;;;;;4975323;28;20031;-66
2023/07/28 07:19:40;;;;;;;3.47;2.60;;;;;;;;;;4975288;28;20489;-67
2023/07/28 07:22:06;;;;;;;3.95;2.50;;;;;;;;;;4975390;28;20114;-66
2023/07/28 07:24:32;;;;;;;5.47;3.70;;;;;;;;;;4975090;28;20098;-65
2023/07/28 07:26:58;;;;;;;5.63;2.50;;;;;;;;;;4975135;28;20384;-65
2023/07/28 07:29:23;;;;;;;2.72;2.40;;;;;;;;;;4975404;28;20038;-67
2023/07/28 07:31:48;;;;;;;6.43;2.60;;;;;;;;;;4975112;28;20031;-66
2023/07/28 07:34:14;;;;;;;4.95;3.10;;;;;;;;;;4974950;28;20118;-66
2023/07/28 07:36:40;;;;;;;3.55;2.40;;;;;;;;;;4975250;28;20522;-66
2023/07/28 07:39:05;;;;;;;2.85;2.25;;;;;;;;;;4974694;28;20425;-65
2023/07/28 07:41:31;;;;;;;4.00;2.95;;;;;;;;;;4975024;28;20057;-66
2023/07/28 07:43:56;;;;;;;4.38;2.80;;;;;;;;;;4974857;28;20126;-67
2023/07/28 07:46:23;;;;;;;2.97;2.40;;;;;;;;;;4974536;28;20058;-66
2023/07/28 07:48:49;;;;;;;4.55;2.90;;;;;;;;;;4973676;28;20038;-66
2023/07/28 07:51:14;;;;;;;3.70;2.45;;;;;;;;;;4974636;28;20031;-67
2023/07/28 07:53:40;;;;;;;3.25;2.30;;;;;;;;;;4973892;28;20031;-68
2023/07/28 07:56:07;;;;;;;2.22;1.67;;;;;;;;;;4974968;28;20019;-67
2023/07/28 07:58:32;;;;;;;2.28;1.88;;;;;;;;;;4974807;28;20023;-67
2023/07/28 08:00:58;;;;;;;2.83;1.92;;;;;;;;;;4974574;28;20037;-66
2023/07/28 08:03:24;;;;;;;1.85;1.58;;;;;;;;;;4974560;28;20038;-67
2023/07/28 08:05:51;;;;;;;4.05;1.75;;;;;;;;;;4974263;28;20074;-66
2023/07/28 08:08:17;;;;;;;2.50;1.83;;;;;;;;;;4974019;28;20053;-66
2023/07/28 08:10:43;;;;;;;2.75;1.75;;;;;;;;;;4974458;28;20543;-67
2023/07/28 08:13:09;;;;;;;2.15;1.70;;;;;;;;;;4974368;28;20097;-66
2023/07/28 08:15:35;;;;;;;3.42;1.60;;;;;;;;;;4974513;28;20031;-66
2023/07/28 08:18:00;;;;;;;1.52;1.20;;;;;;;;;;4974142;28;20042;-65
2023/07/28 08:20:26;;;;;;;1.60;1.20;;;;;;;;;;4972890;28;20035;-69
2023/07/28 08:22:52;;;;;;;1.65;1.40;;;;;;;;;;4973746;28;20023;-68
2023/07/28 08:25:18;;;;;;;1.60;1.35;;;;;;;;;;4974301;28;20033;-66
2023/07/28 08:27:43;;;;;;;2.13;1.40;;;;;;;;;;4973964;28;20022;-69
2023/07/28 08:30:09;;;;;;;1.77;1.30;;;;;;;;;;4974160;28;20031;-66
2023/07/28 08:32:35;;;;;;;2.05;1.50;;;;;;;;;;4974339;28;20657;-66
2023/07/28 08:35:00;;;;;;;1.70;1.40;;;;;;;;;;4973573;28;20023;-66
2023/07/28 08:37:25;;;;;;;2.95;1.30;;;;;;;;;;4974077;28;20023;-66
2023/07/28 08:39:51;;;;;;;2.08;1.60;;;;;;;;;;4973980;28;20037;-66
2023/07/28 08:42:16;;;;;;;2.28;1.27;;;;;;;;;;4973732;28;20019;-66
2023/07/28 08:44:42;;;;;;;3.20;1.10;;;;;;;;;;4973982;28;20501;-66
2023/07/28 08:47:07;;;;;;;1.95;1.30;;;;;;;;;;4973308;28;20051;-65
2023/07/28 08:49:36;;;;;;;1.80;1.60;;;;;;;;;;4973851;28;20018;-65
2023/07/28 08:52:03;;;;;;;1.75;1.40;;;;;;;;;;4973698;28;20046;-66
2023/07/28 08:54:29;;;;;;;1.40;1.20;;;;;;;;;;4973679;28;20086;-64
2023/07/28 08:56:54;;;;;;;4.15;1.40;;;;;;;;;;4973740;28;20027;-67
2023/07/28 08:59:25;;;;;;;5.53;1.30;;;;;;;;;;4971720;28;20037;-66
2023/07/28 09:01:51;;;;;;;1.75;1.50;;;;;;;;;;4972680;28;20031;-67
2023/07/28 09:04:17;;;;;;;2.22;1.60;;;;;;;;;;4977816;28;20027;-66
2023/07/28 09:06:49;;;;;;;5.72;1.98;;;;;;;;;;4979794;28;20101;-66
2023/07/28 09:09:15;;;;;;;5.72;1.63;;;;;;;;;;4980146;28;20031;-68
2023/07/28 09:11:49;;;;;;;2.95;1.40;;;;;;;;;;4980119;28;20516;-66
2023/07/28 09:14:16;;;;;;;4.13;1.60;;;;;;;;;;4979888;28;20031;-66
2023/07/28 09:16:43;;;;;;;2.83;1.20;;;;;;;;;;4980012;28;20023;-65
2023/07/28 09:19:09;;;;;;;1.65;1.10;;;;;;;;;;4979354;28;20492;-66
2023/07/28 09:21:36;;;;;;;1.60;1.40;;;;;;;;;;4979873;28;20041;-66
2023/07/28 09:24:06;;;;;;;1.27;1.00;;;;;;;;;;4979864;28;20031;-66
2023/07/28 09:26:46;;;;;;;1.90;1.10;;;;;;;;;;4979901;28;20511;-68
2023/07/28 09:29:23;;;;;;;5.05;1.30;;;;;;;;;;4979839;28;20550;-68
2023/07/28 09:31:49;;;;;;;1.77;1.30;;;;;;;;;;4979966;28;20061;-64
2023/07/28 09:34:28;;;;;;;1.10;1.00;;;;;;;;;;4981520;28;20042;-65
2023/07/28 09:36:57;;;;;;;1.73;1.17;;;;;;;;;;4979837;28;20109;-65
2023/07/28 09:39:23;;;;;;;6.63;1.38;;;;;;;;;;4979876;28;20027;-68
2023/07/28 09:41:49;;;;;;;1.33;1.15;;;;;;;;;;4979771;28;20026;-66
2023/07/28 09:44:15;;;;;;;1.88;1.30;;;;;;;;;;4979530;28;20034;-65
2023/07/28 09:46:57;;;;;;;2.10;1.20;;;;;;;;;;4979521;28;20039;-65
2023/07/28 09:49:29;;;;;;;1.85;1.20;;;;;;;;;;4979403;28;20034;-65
2023/07/28 09:51:59;;;;;;;2.42;1.10;;;;;;;;;;4979766;28;20097;-65
2023/07/28 09:54:29;;;;;;;2.70;1.30;;;;;;;;;;4979486;28;20075;-65
2023/07/28 09:56:59;;;;;;;4.00;1.30;;;;;;;;;;4979657;28;20023;-66
2023/07/28 09:59:29;;;;;;;1.63;1.20;;;;;;;;;;4979688;28;20432;-65
2023/07/28 10:01:57;;;;;;;3.03;1.10;;;;;;;;;;4979333;28;20019;-65
2023/07/28 10:04:23;;;;;;;2.10;1.20;;;;;;;;;;4979314;28;20030;-66
2023/07/28 10:06:50;;;;;;;2.67;1.20;;;;;;;;;;4979554;28;20034;-66
2023/07/28 10:09:16;;;;;;;1.50;1.30;;;;;;;;;;4979413;28;20030;-66
2023/07/28 10:11:42;;;;;;;4.18;1.10;;;;;;;;;;4979281;28;20023;-66
2023/07/28 10:14:10;;;;;;;2.20;1.20;;;;;;;;;;4978137;28;20492;-65
2023/07/28 10:16:40;;;;;;;4.13;1.20;;;;;;;;;;4975467;28;20081;-66
2023/07/28 10:19:06;;;;;;;2.85;1.30;;;;;;;;;;4976185;28;20034;-65
2023/07/28 10:21:38;;;;;;;3.33;1.30;;;;;;;;;;4976417;28;20085;-68
2023/07/28 10:24:04;;;;;;;1.73;1.10;;;;;;;;;;4976389;28;20018;-66
2023/07/28 10:26:44;;;;;;;2.10;1.30;;;;;;;;;;4976175;28;20037;-67
2023/07/28 10:29:13;;;;;;;1.75;1.15;;;;;;;;;;4976073;28;20039;-67
2023/07/28 10:31:52;;;;;;;2.00;1.20;;;;;;;;;;4975958;28;20035;-65
2023/07/28 10:34:18;;;;;;;1.45;1.17;;;;;;;;;;4975967;28;20030;-64
2023/07/28 10:36:45;;;;;;;3.63;1.45;;;;;;;;;;4976291;28;20055;-67
2023/07/28 10:39:17;;;;;;;2.40;1.20;;;;;;;;;;4975865;28;20716;-65
2023/07/28 10:42:03;;;;;;;1.67;1.10;;;;;;;;;;4976029;28;20065;-65
2023/07/28 10:44:29;;;;;;;1.52;1.30;;;;;;;;;;4975760;28;20037;-68
2023/07/28 10:46:55;;;;;;;1.85;1.42;;;;;;;;;;4975151;28;20039;-68
2023/07/28 10:49:20;;;;;;;2.63;1.00;;;;;;;;;;4975669;28;20142;-65
2023/07/28 10:51:46;;;;;;;1.50;1.17;;;;;;;;;;4975903;28;20022;-65
2023/07/28 10:54:15;;;;;;;1.77;1.23;;;;;;;;;;4975598;28;20442;-65
2023/07/28 10:56:41;;;;;;;1.87;1.20;;;;;;;;;;4975801;28;20123;-65
2023/07/28 10:59:06;;;;;;;1.48;1.10;;;;;;;;;;4975483;28;20105;-67
2023/07/28 11:01:37;;;;;;;2.22;1.10;;;;;;;;;;4975140;28;20035;-65
2023/07/28 11:04:23;;;;;;;4.90;1.58;;;;;;;;;;4975388;28;20035;-67
2023/07/28 11:06:50;;;;;;;3.17;1.02;;;;;;;;;;4975455;28;20027;-67
2023/07/28 11:09:22;;;;;;;4.03;1.23;;;;;;;;;;4975168;28;20362;-68
2023/07/28 11:11:48;;;;;;;1.83;1.10;;;;;;;;;;4975596;28;20085;-65
2023/07/28 11:14:17;;;;;;;1.05;0.95;;;;;;;;;;4975408;28;20039;-66
2023/07/28 11:16:44;;;;;;;2.55;1.30;;;;;;;;;;4975263;28;20026;-69
2023/07/28 11:19:11;;;;;;;1.52;1.13;;;;;;;;;;4975016;28;20034;-69
2023/07/28 11:21:41;;;;;;;2.05;1.30;;;;;;;;;;4974001;28;20110;-66
2023/07/28 11:24:10;;;;;;;4.47;1.75;;;;;;;;;;4975139;28;20034;-69
2023/07/28 11:26:37;;;;;;;2.00;1.50;;;;;;;;;;4974897;28;20113;-66
2023/07/28 11:29:03;;;;;;;3.08;1.35;;;;;;;;;;4975092;28;20035;-66
2023/07/28 11:31:29;;;;;;;1.90;1.55;;;;;;;;;;4975030;28;20058;-67
2023/07/28 11:33:54;;;;;;;2.67;1.67;;;;;;;;;;4974921;28;20028;-67
2023/07/28 11:36:27;;;;;;;2.28;1.65;;;;;;;;;;4974857;28;20030;-67
2023/07/28 11:38:54;;;;;;;2.20;1.50;;;;;;;;;;4974664;28;20396;-68
2023/07/28 11:41:21;;;;;;;3.03;1.55;;;;;;;;;;4975166;28;20113;-66
2023/07/28 11:43:48;;;;;;;2.38;1.80;;;;;;;;;;4974880;28;20054;-66
2023/07/28 11:46:32;;;;;;;1.83;1.50;;;;;;;;;;4974187;28;20049;-71
2023/07/28 11:49:11;;;;;;;2.15;1.58;;;;;;;;;;4974668;28;20041;-66
2023/07/28 11:51:43;;;;;;;2.45;1.70;;;;;;;;;;4974946;28;20026;-65
2023/07/28 11:54:16;;;;;;;4.47;1.65;;;;;;;;;;4974653;28;20029;-66
2023/07/28 11:56:43;;;;;;;2.88;1.63;;;;;;;;;;4974932;28;20555;-67
2023/07/28 11:59:10;;;;;;;4.68;1.42;;;;;;;;;;4974248;28;20220;-65
2023/07/28 12:01:50;;;;;;;2.30;1.50;;;;;;;;;;4974339;28;20023;-66
2023/07/28 12:04:23;;;;;;;2.47;1.40;;;;;;;;;;4974386;28;20037;-65
2023/07/28 12:07:06;;;;;;;1.73;1.35;;;;;;;;;;4974559;28;20023;-65
2023/07/28 12:09:52;;;;;;;1.80;1.40;;;;;;;;;;4974042;28;20039;-64
2023/07/28 12:12:20;;;;;;;1.60;1.20;;;;;;;;;;4973969;28;20055;-68
2023/07/28 12:14:46;;;;;;;1.70;1.20;;;;;;;;;;4974056;28;20031;-66
2023/07/28 12:17:17;;;;;;;3.00;1.45;;;;;;;;;;4974175;28;20511;-68
2023/07/28 12:20:10;;;;;;;1.13;0.80;;;;;;;;;;4974144;28;20035;-68
2023/07/28 12:22:36;;;;;;;2.53;0.80;;;;;;;;;;4974321;28;20037;-66
2023/07/28 12:25:02;;;;;;;1.60;1.00;;;;;;;;;;4974015;28;20053;-65
2023/07/28 12:27:27;;;;;;;2.85;0.90;;;;;;;;;;4974091;28;20096;-66
2023/07/28 12:29:52;;;;;;;1.27;0.80;;;;;;;;;;4973888;28;20535;-68
2023/07/28 12:32:18;;;;;;;0.90;0.80;;;;;;;;;;4973806;28;20031;-66
2023/07/28 12:34:44;;;;;;;3.28;0.80;;;;;;;;;;4973951;28;20041;-67
2023/07/28 12:37:09;;;;;;;0.90;0.80;;;;;;;;;;4973778;28;20038;-66
2023/07/28 12:39:40;;;;;;;1.33;0.90;;;;;;;;;;4973318;28;20122;-66
2023/07/28 12:42:07;;;;;;;2.92;0.90;;;;;;;;;;4973593;28;20027;-67
2023/07/28 12:44:32;;;;;;;3.25;0.90;;;;;;;;;;4973765;28;20046;-66
2023/07/28 12:46:58;;;;;;;1.05;0.77;;;;;;;;;;4965736;28;20425;-69
2023/07/28 12:49:23;;;;;;;2.70;0.90;;;;;;;;;;4958694;28;20029;-66
2023/07/28 12:51:49;;;;;;;2.10;0.77;;;;;;;;;;4973809;28;20023;-65
2023/07/28 12:54:15;;;;;;;3.10;1.20;;;;;;;;;;4973603;28;20035;-69
2023/07/28 12:56:40;;;;;;;2.15;1.08;;;;;;;;;;4973451;28;20030;-66
2023/07/28 12:59:06;;;;;;;1.90;1.10;;;;;;;;;;4973518;28;20493;-66
2023/07/28 13:01:31;;;;;;;2.58;1.00;;;;;;;;;;4974415;28;20027;-65
2023/07/28 13:03:56;;;;;;;2.42;1.00;;;;;;;;;;4993014;28;20070;-68
2023/07/28 13:06:22;;;;;;;2.45;1.05;;;;;;;;;;4992993;28;20117;-66
2023/07/28 13:08:47;;;;;;;3.90;1.10;;;;;;;;;;4977169;28;20151;-68
2023/07/28 13:11:14;;;;;;;1.73;0.98;;;;;;;;;;4973250;28;20081;-67
2023/07/28 13:13:40;;;;;;;1.70;0.90;;;;;;;;;;4973439;28;20090;-65
2023/07/28 13:16:06;;;;;;;2.08;0.90;;;;;;;;;;4973219;28;20424;-68
2023/07/28 13:18:32;;;;;;;3.42;1.13;;;;;;;;;;4973483;28;20109;-69
2023/07/28 13:20:58;;;;;;;2.45;1.00;;;;;;;;;;4973403;28;20035;-66
2023/07/28 13:23:24;;;;;;;1.50;0.95;;;;;;;;;;4973389;28;20035;-70
2023/07/28 13:25:50;;;;;;;2.13;1.00;;;;;;;;;;4973125;28;20558;-66
2023/07/28 13:28:15;;;;;;;1.27;0.80;;;;;;;;;;4973420;28;20530;-66
2023/07/28 13:30:41;;;;;;;1.42;0.90;;;;;;;;;;4973505;28;20162;-69
2023/07/28 13:33:06;;;;;;;3.72;0.77;;;;;;;;;;4973289;28;20154;-66
2023/07/28 13:35:32;;;;;;;1.10;0.90;;;;;;;;;;4973267;28;20019;-64
2023/07/28 13:37:58;;;;;;;0.93;0.80;;;;;;;;;;4973252;28;20109;-66
2023/07/28 13:40:23;;;;;;;1.15;0.90;;;;;;;;;;4973049;28;20037;-65
2023/07/28 13:42:49;;;;;;;1.52;1.00;;;;;;;;;;4973249;28;20082;-66
2023/07/28 13:45:14;;;;;;;1.55;0.80;;;;;;;;;;4973217;28;20037;-66
2023/07/28 13:47:39;;;;;;;0.93;0.82;;;;;;;;;;4959958;28;20040;-65
2023/07/28 13:50:07;;;;;;;0.75;0.75;;;;;;;;;;4954424;28;20043;-65
2023/07/28 13:52:32;;;;;;;1.45;0.85;;;;;;;;;;4957598;28;20500;-67
2023/07/28 13:54:58;;;;;;;1.15;0.80;;;;;;;;;;4957094;28;20557;-64
2023/07/28 13:57:24;;;;;;;1.70;0.95;;;;;;;;;;4972284;28;20032;-65
2023/07/28 13:59:50;;;;;;;1.60;0.70;;;;;;;;;;4957141;29;20039;-65
2023/07/28 14:02:18;;;;;;;1.35;0.88;;;;;;;;;;4966200;28;20034;-68
2023/07/28 14:04:43;;;;;;;2.25;0.85;;;;;;;;;;4976802;28;20117;-69
2023/07/28 14:07:09;;;;;;;1.33;0.90;;;;;;;;;;4976536;28;20058;-70
2023/07/28 14:09:36;;;;;;;1.30;0.70;;;;;;;;;;4976169;28;20035;-67
2023/07/28 14:12:01;;;;;;;1.30;0.85;;;;;;;;;;4976477;28;20104;-70
2023/07/28 14:14:28;;;;;;;1.42;0.90;;;;;;;;;;4975252;28;20051;-65
2023/07/28 14:16:54;;;;;;;2.13;0.90;;;;;;;;;;4974895;28;20440;-65
2023/07/28 14:19:21;;;;;;;1.35;0.90;;;;;;;;;;4974758;28;20069;-66
2023/07/28 14:21:46;;;;;;;0.98;0.80;;;;;;;;;;4976503;28;20038;-65
2023/07/28 14:24:12;;;;;;;3.10;1.00;;;;;;;;;;4976086;28;20101;-65
2023/07/28 14:26:38;;;;;;;1.58;0.98;;;;;;;;;;4976325;28;20063;-65
2023/07/28 14:29:03;;;;;;;1.30;0.80;;;;;;;;;;4976261;28;20543;-71
2023/07/28 14:31:29;;;;;;;1.23;0.90;;;;;;;;;;4976181;28;20070;-67
2023/07/28 14:33:54;;;;;;;1.40;0.90;;;;;;;;;;4976388;28;20142;-68
2023/07/28 14:36:20;;;;;;;1.65;1.00;;;;;;;;;;4974732;28;20499;-68
2023/07/28 14:38:46;;;;;;;0.93;0.70;;;;;;;;;;4975997;28;20078;-66